createdAt,value
2022-08-07T00:02:41.159Z,87.02
2022-08-07T00:05:05.723Z,87.02
2022-08-07T00:07:40.779Z,87.23
2022-08-07T00:10:26.618Z,87.11
2022-08-07T00:13:00.541Z,87.19
2022-08-07T00:15:38.123Z,87.17
2022-08-07T00:18:18.742Z,87.33
2022-08-07T00:20:49.595Z,87.39
2022-08-07T00:23:21.911Z,87.52
2022-08-07T00:25:52.469Z,87.69
2022-08-07T00:28:33.807Z,87.77
2022-08-07T00:31:06.159Z,87.76
2022-08-07T00:33:42.745Z,87.85
2022-08-07T00:36:13.458Z,87.95
2022-08-07T00:38:45.542Z,87.95
2022-08-07T00:41:15.259Z,87.83
2022-08-07T00:44:00.495Z,87.87
2022-08-07T00:46:32.946Z,88.14
2022-08-07T00:49:03.727Z,88.03
2022-08-07T00:51:58.136Z,87.96
2022-08-07T00:54:25.819Z,88.09
2022-08-07T00:56:55.486Z,88.22
2022-08-07T00:59:35.365Z,88.48
2022-08-07T01:02:08.766Z,88.55
2022-08-07T01:04:43.998Z,88.70
2022-08-07T01:07:13.701Z,88.84
2022-08-07T01:10:04.817Z,88.97
2022-08-07T01:12:35.438Z,88.96
2022-08-07T01:15:05.457Z,88.92
2022-08-07T01:17:35.992Z,89.08
2022-08-07T01:20:16.574Z,89.07
2022-08-07T01:23:00.466Z,89.16
2022-08-07T01:25:55.512Z,89.28
2022-08-07T01:28:26.064Z,89.13
2022-08-07T01:30:58.748Z,89.22
2022-08-07T01:33:47.617Z,89.34
2022-08-07T01:36:18.023Z,89.29
2022-08-07T01:38:50.225Z,89.18
2022-08-07T01:41:26.349Z,89.20
2022-08-07T01:43:56.549Z,89.14
2022-08-07T01:46:26.061Z,89.69
2022-08-07T01:48:56.973Z,89.72
2022-08-07T01:52:02.804Z,89.57
2022-08-07T01:54:32.920Z,89.38
2022-08-07T01:57:08.676Z,89.47
2022-08-07T01:59:52.856Z,89.53
2022-08-07T02:03:12.110Z,89.55
2022-08-07T02:05:48.092Z,89.72
2022-08-07T02:08:13.944Z,89.78
2022-08-07T02:10:54.903Z,89.98
2022-08-07T02:13:56.292Z,89.86
2022-08-07T02:16:14.945Z,89.84
2022-08-07T02:18:47.204Z,89.93
2022-08-07T02:21:18.051Z,89.92
2022-08-07T02:23:49.349Z,89.76
2022-08-07T02:26:32.759Z,89.96
2022-08-07T02:29:05.135Z,90.02
2022-08-07T02:31:43.533Z,90.09
2022-08-07T02:34:18.196Z,90.02
2022-08-07T02:36:48.301Z,89.83
2022-08-07T02:39:43.719Z,89.86
2022-08-07T02:42:14.655Z,89.77
2022-08-07T02:44:48.272Z,90.02
2022-08-07T02:47:23.643Z,89.99
2022-08-07T02:49:57.993Z,90.06
2022-08-07T02:52:32.695Z,90.18
2022-08-07T02:55:03.940Z,90.19
2022-08-07T02:57:39.171Z,90.08
2022-08-07T03:00:11.349Z,90.12
2022-08-07T03:02:54.167Z,90.29
2022-08-07T03:05:24.926Z,90.33
2022-08-07T03:08:06.927Z,90.41
2022-08-07T03:10:41.083Z,90.23
2022-08-07T03:13:20.249Z,90.28
2022-08-07T03:15:56.290Z,90.30
2022-08-07T03:18:34.925Z,90.22
2022-08-07T03:21:08.524Z,90.03
2022-08-07T03:24:18.102Z,89.82
2022-08-07T03:26:33.256Z,89.75
2022-08-07T03:29:11.130Z,89.74
2022-08-07T03:31:43.340Z,89.60
2022-08-07T03:34:18.922Z,89.50
2022-08-07T03:36:53.173Z,89.52
2022-08-07T03:39:58.969Z,89.36
2022-08-07T03:42:14.352Z,89.35
2022-08-07T03:44:53.426Z,89.34
2022-08-07T03:47:28.068Z,89.37
2022-08-07T03:49:59.757Z,89.24
2022-08-07T03:52:31.490Z,89.37
2022-08-07T03:55:07.452Z,89.50
2022-08-07T03:58:34.045Z,89.67
2022-08-07T04:00:33.557Z,89.69
2022-08-07T04:03:05.332Z,89.70
2022-08-07T04:05:40.429Z,89.88
2022-08-07T04:08:12.866Z,89.82
2022-08-07T04:10:54.649Z,89.85
2022-08-07T04:14:10.347Z,89.79
2022-08-07T04:16:31.529Z,89.82
2022-08-07T04:19:04.095Z,89.90
2022-08-07T04:21:58.791Z,89.98
2022-08-07T04:24:33.716Z,90.11
2022-08-07T04:27:15.306Z,90.14
2022-08-07T04:30:01.459Z,90.37
2022-08-07T04:32:35.954Z,90.30
2022-08-07T04:35:07.032Z,90.31
2022-08-07T04:38:01.045Z,90.30
2022-08-07T04:40:31.360Z,90.21
2022-08-07T04:43:03.538Z,90.78
2022-08-07T04:45:58.057Z,90.96
2022-08-07T04:48:33.268Z,91.19
2022-08-07T04:51:09.121Z,91.46
2022-08-07T04:54:01.879Z,91.66
2022-08-07T04:58:11.706Z,92.08
2022-08-07T05:00:09.733Z,91.73
2022-08-07T05:02:21.679Z,90.74
2022-08-07T05:04:59.801Z,89.75
2022-08-07T05:07:36.912Z,88.58
2022-08-07T05:10:11.038Z,87.18
2022-08-07T05:12:53.013Z,86.85
2022-08-07T05:15:32.039Z,85.77
2022-08-07T05:18:03.252Z,85.38
2022-08-07T05:20:43.075Z,84.61
2022-08-07T05:23:16.207Z,83.06
2022-08-07T05:26:11.169Z,82.79
2022-08-07T05:28:40.489Z,82.32
2022-08-07T05:31:11.141Z,81.63
2022-08-07T05:34:01.398Z,81.10
2022-08-07T05:36:39.083Z,80.72
2022-08-07T05:40:16.608Z,79.99
2022-08-07T05:42:01.803Z,79.32
2022-08-07T05:44:34.367Z,78.92
2022-08-07T05:47:18.158Z,78.45
2022-08-07T05:49:49.282Z,77.91
2022-08-07T05:52:29.796Z,77.93
2022-08-07T05:55:07.279Z,76.94
2022-08-07T05:57:42.594Z,77.55
2022-08-07T06:00:16.560Z,76.85
2022-08-07T06:02:49.191Z,76.57
2022-08-07T06:05:28.466Z,75.90
2022-08-07T06:08:14.683Z,75.99
2022-08-07T06:10:51.304Z,75.88
2022-08-07T06:14:10.795Z,75.60
2022-08-07T06:16:14.127Z,74.87
2022-08-07T06:18:51.735Z,74.68
2022-08-07T06:22:16.136Z,74.01
2022-08-07T06:24:46.282Z,74.21
2022-08-07T06:27:08.011Z,73.23
2022-08-07T06:29:39.022Z,72.88
2022-08-07T06:32:09.066Z,72.56
2022-08-07T06:34:45.243Z,72.08
2022-08-07T06:37:17.303Z,71.88
2022-08-07T06:40:17.060Z,71.49
2022-08-07T06:42:44.117Z,72.19
2022-08-07T06:45:18.348Z,71.78
2022-08-07T06:47:58.477Z,71.18
2022-08-07T06:50:30.413Z,70.30
2022-08-07T06:53:04.228Z,69.44
2022-08-07T06:55:53.397Z,70.07
2022-08-07T06:58:27.701Z,68.94
2022-08-07T07:00:59.152Z,68.49
2022-08-07T07:03:44.597Z,68.21
2022-08-07T07:06:23.880Z,68.95
2022-08-07T07:08:53.671Z,68.74
2022-08-07T07:12:07.517Z,68.60
2022-08-07T07:14:18.478Z,68.04
2022-08-07T07:16:53.837Z,66.54
2022-08-07T07:19:55.342Z,65.96
2022-08-07T07:22:36.879Z,66.08
2022-08-07T07:26:30.894Z,65.71
2022-08-07T07:28:03.177Z,65.35
2022-08-07T07:30:40.316Z,64.93
2022-08-07T07:33:12.116Z,64.62
2022-08-07T07:36:03.934Z,64.53
2022-08-07T07:38:36.089Z,63.51
2022-08-07T07:41:08.586Z,63.58
2022-08-07T07:44:56.199Z,63.12
2022-08-07T07:47:26.119Z,62.90
2022-08-07T07:50:33.580Z,62.84
2022-08-07T07:52:48.615Z,61.97
2022-08-07T07:55:20.809Z,62.15
2022-08-07T07:57:58.162Z,62.71
2022-08-07T08:00:34.099Z,62.17
2022-08-07T08:03:08.206Z,61.49
2022-08-07T08:05:54.089Z,62.21
2022-08-07T08:08:35.014Z,61.87
2022-08-07T08:11:08.676Z,61.63
2022-08-07T08:13:53.124Z,61.84
2022-08-07T08:16:29.812Z,61.41
2022-08-07T08:19:17.376Z,61.84
2022-08-07T08:22:04.547Z,61.08
2022-08-07T08:25:04.407Z,61.46
2022-08-07T08:27:44.038Z,61.54
2022-08-07T08:30:27.346Z,61.17
2022-08-07T08:33:01.680Z,61.13
2022-08-07T08:35:42.865Z,60.91
2022-08-07T08:38:19.659Z,61.56
2022-08-07T08:40:51.393Z,62.01
2022-08-07T08:43:32.019Z,62.36
2022-08-07T08:46:15.752Z,61.82
2022-08-07T08:48:53.610Z,61.94
2022-08-07T08:52:12.683Z,61.12
2022-08-07T08:54:24.215Z,61.36
2022-08-07T08:56:55.682Z,61.92
2022-08-07T08:59:29.193Z,61.80
2022-08-07T09:02:03.496Z,62.33
2022-08-07T09:04:46.314Z,62.58
2022-08-07T09:07:23.274Z,62.64
2022-08-07T09:09:58.345Z,62.57
2022-08-07T09:12:35.921Z,62.58
2022-08-07T09:16:24.885Z,62.90
2022-08-07T09:18:22.668Z,62.25
2022-08-07T09:21:01.062Z,62.58
2022-08-07T09:24:33.476Z,63.09
2022-08-07T09:26:28.174Z,62.55
2022-08-07T09:30:03.244Z,61.84
2022-08-07T09:31:57.797Z,62.12
2022-08-07T09:34:30.094Z,62.42
2022-08-07T09:37:05.959Z,62.73
2022-08-07T09:39:53.642Z,63.09
2022-08-07T09:42:33.870Z,62.72
2022-08-07T09:47:54.990Z,63.01
2022-08-07T09:48:12.226Z,63.87
2022-08-07T09:50:54.251Z,64.52
2022-08-07T09:53:41.406Z,65.54
2022-08-07T09:57:52.605Z,65.26
2022-08-07T10:00:30.035Z,64.92
2022-08-07T10:04:05.330Z,64.77
2022-08-07T10:06:35.674Z,63.59
2022-08-07T10:09:42.710Z,63.63
2022-08-07T10:12:26.444Z,63.71
2022-08-07T10:15:28.416Z,63.37
2022-08-07T10:18:36.838Z,63.59
2022-08-07T10:22:12.331Z,63.32
2022-08-07T10:24:29.508Z,62.39
2022-08-07T10:27:19.866Z,62.59
2022-08-07T10:30:12.166Z,61.63
2022-08-07T10:33:08.509Z,61.95
2022-08-07T10:36:05.501Z,62.77
2022-08-07T10:38:52.059Z,62.28
2022-08-07T10:41:47.412Z,62.08
2022-08-07T10:44:33.733Z,62.46
2022-08-07T10:47:27.193Z,62.27
2022-08-07T10:50:19.925Z,61.85
2022-08-07T10:53:08.119Z,61.44
2022-08-07T10:55:47.090Z,61.28
2022-08-07T10:58:32.981Z,61.23
2022-08-07T11:01:23.752Z,61.23
2022-08-07T11:04:23.099Z,62.15
2022-08-07T11:07:04.859Z,61.53
2022-08-07T11:10:07.568Z,61.51
2022-08-07T11:12:45.708Z,61.04
2022-08-07T11:15:31.489Z,61.57
2022-08-07T11:18:06.134Z,60.43
2022-08-07T11:20:46.416Z,60.50
2022-08-07T11:23:30.612Z,60.95
2022-08-07T11:26:13.375Z,61.58
2022-08-07T11:28:53.367Z,62.71
2022-08-07T11:31:35.309Z,63.98
2022-08-07T11:34:11.894Z,64.73
2022-08-07T11:36:56.704Z,64.67
2022-08-07T11:40:01.068Z,64.72
2022-08-07T11:42:44.005Z,65.02
2022-08-07T11:45:23.848Z,65.34
2022-08-07T11:48:29.550Z,65.11
2022-08-07T11:51:44.758Z,65.61
2022-08-07T11:54:36.344Z,65.75
2022-08-07T11:57:24.993Z,65.84
2022-08-07T12:00:19.073Z,66.09
2022-08-07T12:03:42.269Z,66.13
2022-08-07T12:06:50.301Z,65.78
2022-08-07T12:09:28.785Z,66.54
2022-08-07T12:12:10.531Z,65.08
2022-08-07T12:15:01.407Z,65.42
2022-08-07T12:17:40.729Z,65.03
2022-08-07T12:20:33.406Z,64.60
2022-08-07T12:24:06.248Z,64.23
2022-08-07T12:26:40.629Z,63.38
2022-08-07T12:29:37.549Z,62.28
2022-08-07T12:32:20.224Z,62.05
2022-08-07T12:34:55.954Z,62.52
2022-08-07T12:38:09.098Z,62.93
2022-08-07T12:40:46.273Z,61.94
2022-08-07T12:44:02.069Z,61.76
2022-08-07T12:46:26.293Z,61.46
2022-08-07T12:49:25.665Z,61.01
2022-08-07T12:52:14.463Z,59.99
2022-08-07T12:55:00.132Z,60.48
2022-08-07T12:57:59.134Z,60.20
2022-08-07T13:00:34.539Z,61.08
2022-08-07T13:03:22.981Z,60.24
2022-08-07T13:06:29.348Z,60.47
2022-08-07T13:10:17.719Z,60.69
2022-08-07T13:12:15.233Z,61.28
2022-08-07T13:14:55.280Z,60.49
2022-08-07T13:17:40.606Z,61.73
2022-08-07T13:20:18.787Z,60.64
2022-08-07T13:23:09.716Z,62.07
2022-08-07T13:26:00.745Z,61.78
2022-08-07T13:28:36.882Z,61.68
2022-08-07T13:31:15.254Z,61.60
2022-08-07T13:34:31.190Z,62.41
2022-08-07T13:36:46.451Z,62.08
2022-08-07T13:40:33.386Z,60.88
2022-08-07T13:42:25.833Z,61.54
2022-08-07T13:46:06.863Z,60.78
2022-08-07T13:48:08.086Z,61.98
2022-08-07T13:50:59.973Z,61.72
2022-08-07T13:53:55.220Z,59.78
2022-08-07T13:56:36.366Z,60.92
2022-08-07T13:59:15.813Z,61.49
2022-08-07T14:02:04.767Z,60.89
2022-08-07T14:04:49.482Z,61.13
2022-08-07T14:07:23.934Z,62.02
2022-08-07T14:10:12.469Z,61.92
2022-08-07T14:12:55.843Z,61.82
2022-08-07T14:15:36.061Z,62.02
2022-08-07T14:18:24.450Z,62.69
2022-08-07T14:21:08.281Z,62.75
2022-08-07T14:24:01.153Z,62.30
2022-08-07T14:26:50.220Z,62.71
2022-08-07T14:30:06.503Z,62.77
2022-08-07T14:32:21.859Z,62.74
2022-08-07T14:34:58.015Z,62.54
2022-08-07T14:37:39.297Z,62.94
2022-08-07T14:40:27.245Z,62.94
2022-08-07T14:43:55.186Z,61.74
2022-08-07T14:45:56.819Z,61.62
2022-08-07T14:48:32.589Z,61.41
2022-08-07T14:51:15.756Z,62.07
2022-08-07T14:54:08.614Z,63.78
2022-08-07T14:56:43.078Z,63.38
2022-08-07T15:00:03.596Z,62.42
2022-08-07T15:02:34.753Z,62.97
2022-08-07T15:05:20.509Z,63.35
2022-08-07T15:07:54.644Z,63.79
2022-08-07T15:10:27.135Z,64.37
2022-08-07T15:13:06.131Z,64.41
2022-08-07T15:15:40.752Z,64.42
2022-08-07T15:18:28.591Z,63.35
2022-08-07T15:21:44.062Z,64.67
2022-08-07T15:25:15.071Z,65.23
2022-08-07T15:26:58.907Z,64.70
2022-08-07T15:32:39.078Z,66.79
2022-08-07T15:35:17.837Z,67.64
2022-08-07T15:38:17.566Z,67.52
2022-08-07T15:41:00.118Z,67.77
2022-08-07T15:43:56.410Z,69.16
2022-08-07T15:46:32.490Z,68.59
2022-08-07T15:52:10.588Z,68.83
2022-08-07T15:54:46.322Z,68.74
2022-08-07T15:57:28.138Z,69.14
2022-08-07T16:00:31.863Z,69.74
2022-08-07T16:03:03.881Z,70.42
2022-08-07T16:05:34.335Z,70.87
2022-08-07T16:08:32.160Z,71.63
2022-08-07T16:11:25.368Z,72.62
2022-08-07T16:14:17.051Z,73.38
2022-08-07T16:17:15.976Z,72.88
2022-08-07T16:20:04.726Z,73.24
2022-08-07T16:22:55.673Z,73.28
2022-08-07T16:25:54.650Z,73.34
2022-08-07T16:30:05.547Z,72.82
2022-08-07T16:31:57.825Z,73.12
2022-08-07T16:38:04.324Z,73.46
2022-08-07T16:40:57.188Z,73.54
2022-08-07T16:44:03.701Z,73.43
2022-08-07T16:47:25.174Z,72.89
2022-08-07T16:50:35.417Z,72.59
2022-08-07T16:53:48.069Z,72.88
2022-08-07T16:56:22.425Z,72.76
2022-08-07T16:59:11.429Z,72.43
2022-08-07T17:01:58.965Z,72.72
2022-08-07T17:04:57.868Z,71.64
2022-08-07T17:07:55.600Z,72.57
2022-08-07T17:10:34.677Z,72.74
2022-08-07T17:14:19.590Z,72.40
2022-08-07T17:16:56.110Z,72.63
2022-08-07T17:20:00.507Z,72.22
2022-08-07T17:22:38.011Z,72.24
2022-08-07T17:25:18.517Z,72.71
2022-08-07T17:28:01.177Z,72.64
2022-08-07T17:30:57.724Z,72.98
2022-08-07T17:34:09.670Z,73.25
2022-08-07T17:36:31.440Z,73.30
2022-08-07T17:39:10.109Z,73.03
2022-08-07T17:42:03.690Z,72.77
2022-08-07T17:44:49.558Z,72.88
2022-08-07T17:47:37.939Z,73.27
2022-08-07T17:50:19.866Z,73.21
2022-08-07T17:52:59.039Z,73.27
2022-08-07T17:56:00.592Z,73.55
2022-08-07T17:58:35.838Z,73.67
2022-08-07T18:01:18.096Z,73.92
2022-08-07T18:04:07.758Z,73.97
2022-08-07T18:07:19.069Z,73.72
2022-08-07T18:10:04.716Z,73.79
2022-08-07T18:12:44.979Z,74.00
2022-08-07T18:15:22.784Z,74.26
2022-08-07T18:21:07.462Z,74.12
2022-08-07T18:22:40.378Z,74.43
2022-08-07T18:25:39.049Z,75.22
2022-08-07T18:28:34.016Z,75.06
2022-08-07T18:31:08.105Z,75.08
2022-08-07T18:34:00.114Z,75.33
2022-08-07T18:36:42.692Z,74.96
2022-08-07T18:40:06.785Z,75.48
2022-08-07T18:42:27.712Z,76.00
2022-08-07T18:45:43.341Z,76.03
2022-08-07T18:48:02.663Z,76.05
2022-08-07T18:50:45.689Z,76.12
2022-08-07T18:53:36.963Z,76.05
2022-08-07T18:56:14.569Z,76.85
2022-08-07T18:59:01.669Z,76.66
2022-08-07T19:02:19.117Z,76.36
2022-08-07T19:04:39.718Z,76.24
2022-08-07T19:07:35.210Z,76.10
2022-08-07T19:10:21.384Z,76.56
2022-08-07T19:12:59.164Z,76.99
2022-08-07T19:16:05.362Z,77.23
2022-08-07T19:19:40.746Z,77.64
2022-08-07T19:22:12.850Z,77.44
2022-08-07T19:24:48.693Z,77.55
2022-08-07T19:28:29.453Z,77.66
2022-08-07T19:31:03.464Z,77.85
2022-08-07T19:33:10.054Z,78.40
2022-08-07T19:35:46.785Z,79.00
2022-08-07T19:38:17.953Z,79.06
2022-08-07T19:40:52.076Z,78.83
2022-08-07T19:43:43.601Z,79.18
2022-08-07T19:46:12.973Z,79.07
2022-08-07T19:48:54.027Z,79.28
2022-08-07T19:51:51.034Z,79.59
2022-08-07T19:54:34.645Z,79.47
2022-08-07T19:57:59.983Z,79.81
2022-08-07T19:59:59.860Z,79.76
2022-08-07T20:02:34.717Z,80.13
2022-08-07T20:05:08.045Z,80.45
2022-08-07T20:07:48.173Z,80.33
2022-08-07T20:10:37.724Z,80.41
2022-08-07T20:13:23.719Z,80.81
2022-08-07T20:15:57.855Z,80.86
2022-08-07T20:18:33.465Z,80.88
2022-08-07T20:21:14.874Z,81.08
2022-08-07T20:23:57.982Z,81.16
2022-08-07T20:26:38.993Z,81.23
2022-08-07T20:29:17.058Z,81.16
2022-08-07T20:32:06.092Z,81.79
2022-08-07T20:34:51.368Z,81.92
2022-08-07T20:37:26.065Z,82.20
2022-08-07T20:40:05.043Z,82.22
2022-08-07T20:42:56.275Z,82.78
2022-08-07T20:45:32.957Z,83.30
2022-08-07T20:48:25.890Z,83.33
2022-08-07T20:50:59.759Z,83.60
2022-08-07T20:54:04.820Z,83.61
2022-08-07T20:56:26.112Z,83.71
2022-08-07T20:58:56.594Z,83.88
2022-08-07T21:01:29.743Z,84.08
2022-08-07T21:04:22.610Z,84.14
2022-08-07T21:06:55.128Z,84.06
2022-08-07T21:09:51.993Z,84.09
2022-08-07T21:12:28.690Z,84.67
2022-08-07T21:15:01.105Z,84.54
2022-08-07T21:18:03.508Z,84.60
2022-08-07T21:20:29.571Z,84.90
2022-08-07T21:23:07.733Z,84.80
2022-08-07T21:25:56.949Z,84.81
2022-08-07T21:28:50.249Z,85.34
2022-08-07T21:31:49.752Z,85.72
2022-08-07T21:34:26.404Z,85.73
2022-08-07T21:37:00.703Z,85.72
2022-08-07T21:39:46.104Z,85.86
2022-08-07T21:42:40.885Z,86.03
2022-08-07T21:46:05.280Z,86.00
2022-08-07T21:48:28.655Z,86.32
2022-08-07T21:51:02.005Z,86.54
2022-08-07T21:53:46.246Z,86.75
2022-08-07T21:56:39.865Z,86.62
2022-08-07T21:59:24.311Z,86.88
2022-08-07T22:02:10.786Z,87.02
2022-08-07T22:04:53.738Z,87.03
2022-08-07T22:07:31.593Z,86.98
2022-08-07T22:10:16.861Z,87.30
2022-08-07T22:12:49.644Z,87.39
2022-08-07T22:16:41.170Z,87.63
2022-08-07T22:18:17.825Z,87.44
2022-08-07T22:20:52.637Z,88.01
2022-08-07T22:23:23.473Z,87.63
2022-08-07T22:26:01.128Z,87.63
2022-08-07T22:28:36.466Z,87.53
2022-08-07T22:31:09.561Z,87.62
2022-08-07T22:33:57.132Z,87.98
2022-08-07T22:36:32.289Z,87.73
2022-08-07T22:39:04.565Z,88.47
2022-08-07T22:42:03.654Z,88.43
2022-08-07T22:44:32.807Z,88.03
2022-08-07T22:47:23.506Z,88.00
2022-08-07T22:50:13.668Z,88.38
2022-08-07T22:53:16.630Z,88.88
2022-08-07T22:55:51.239Z,88.85
2022-08-07T22:58:34.694Z,88.83
2022-08-07T23:01:17.903Z,89.12
2022-08-07T23:03:57.241Z,89.26
2022-08-07T23:06:43.276Z,89.45
2022-08-07T23:10:05.051Z,89.94
2022-08-07T23:12:34.164Z,90.13
2022-08-07T23:15:11.448Z,89.82
2022-08-07T23:18:12.771Z,90.22
2022-08-07T23:20:53.263Z,90.34
2022-08-07T23:24:06.820Z,90.19
2022-08-07T23:26:27.931Z,89.90
2022-08-07T23:29:43.398Z,89.95
2022-08-07T23:34:19.026Z,90.17
2022-08-07T23:35:14.318Z,90.74
2022-08-07T23:38:09.948Z,90.73
2022-08-07T23:40:51.776Z,90.48
2022-08-07T23:43:38.062Z,90.01
2022-08-07T23:46:15.187Z,89.81
2022-08-07T23:49:13.709Z,89.81
2022-08-07T23:53:01.917Z,89.70
2022-08-07T23:54:45.854Z,89.80
2022-08-07T23:57:22.700Z,89.39
